createdAt,value
2022-10-26T00:02:38.235Z,12.32
2022-10-26T00:08:14.663Z,12.28
2022-10-26T00:13:48.335Z,12.24
2022-10-26T00:19:13.389Z,12.19
2022-10-26T00:24:56.541Z,12.17
2022-10-26T00:30:19.798Z,12.14
2022-10-26T00:35:56.512Z,12.12
2022-10-26T00:41:25.014Z,12.09
2022-10-26T00:47:11.945Z,12.07
2022-10-26T00:52:36.760Z,12.02
2022-10-26T00:58:23.340Z,12.01
2022-10-26T01:03:58.846Z,11.95
2022-10-26T01:09:53.774Z,11.91
2022-10-26T01:15:21.282Z,11.87
2022-10-26T01:21:46.184Z,11.86
2022-10-26T01:27:26.056Z,11.82
2022-10-26T01:33:19.651Z,11.78
2022-10-26T01:38:56.497Z,11.75
2022-10-26T01:44:44.952Z,11.72
2022-10-26T01:56:25.581Z,11.67
2022-10-26T02:02:20.804Z,11.65
2022-10-26T02:07:58.631Z,11.64
2022-10-26T02:13:31.698Z,11.62
2022-10-26T02:19:04.406Z,11.61
2022-10-26T02:24:32.645Z,11.60
2022-10-26T02:30:00.586Z,11.63
2022-10-26T02:35:29.286Z,11.61
2022-10-26T02:40:59.081Z,11.62
2022-10-26T02:46:30.631Z,11.60
2022-10-26T02:52:10.694Z,11.59
2022-10-26T02:57:45.224Z,11.59
2022-10-26T03:03:27.468Z,11.57
2022-10-26T03:09:00.700Z,11.55
2022-10-26T03:14:42.987Z,11.56
2022-10-26T03:20:14.091Z,11.58
2022-10-26T03:26:05.272Z,11.58
2022-10-26T03:31:49.542Z,11.55
2022-10-26T03:37:16.667Z,11.52
2022-10-26T03:42:42.375Z,11.52
2022-10-26T03:48:08.632Z,11.52
2022-10-26T03:53:36.834Z,11.53
2022-10-26T03:59:00.583Z,11.52
2022-10-26T04:04:43.530Z,11.50
2022-10-26T04:10:23.295Z,11.48
2022-10-26T04:16:01.834Z,11.44
2022-10-26T04:21:29.417Z,11.42
2022-10-26T04:26:52.748Z,11.42
2022-10-26T04:32:19.464Z,11.43
2022-10-26T04:37:54.210Z,11.47
2022-10-26T04:43:29.646Z,11.43
2022-10-26T04:49:04.634Z,11.44
2022-10-26T04:54:33.540Z,11.48
2022-10-26T04:59:59.786Z,11.50
2022-10-26T05:05:34.765Z,11.55
2022-10-26T05:11:04.005Z,11.58
2022-10-26T05:16:29.299Z,11.57
2022-10-26T05:22:08.434Z,11.58
2022-10-26T05:27:35.515Z,11.59
2022-10-26T05:33:06.774Z,11.59
2022-10-26T05:38:33.775Z,11.61
2022-10-26T05:44:03.714Z,11.71
2022-10-26T05:49:57.801Z,11.74
2022-10-26T05:55:22.910Z,11.82
2022-10-26T06:01:03.137Z,11.99
2022-10-26T06:06:30.800Z,12.06
2022-10-26T06:12:00.840Z,12.13
2022-10-26T06:17:57.311Z,12.19
2022-10-26T06:24:01.089Z,12.33
2022-10-26T06:29:49.460Z,12.39
2022-10-26T06:35:30.479Z,12.48
2022-10-26T06:41:02.058Z,12.60
2022-10-26T06:46:34.081Z,12.68
2022-10-26T06:52:06.518Z,12.75
2022-10-26T06:57:48.585Z,12.79
2022-10-26T07:03:19.431Z,12.93
2022-10-26T07:08:44.243Z,13.07
2022-10-26T07:14:14.372Z,13.18
2022-10-26T07:19:39.241Z,13.30
2022-10-26T07:25:09.329Z,13.43
2022-10-26T07:30:43.494Z,13.75
2022-10-26T07:36:08.873Z,14.11
2022-10-26T07:41:34.692Z,14.27
2022-10-26T07:47:03.499Z,14.54
2022-10-26T07:52:35.625Z,14.79
2022-10-26T07:58:00.712Z,14.93
2022-10-26T08:03:25.746Z,15.11
2022-10-26T08:08:54.598Z,15.29
2022-10-26T08:14:30.189Z,15.54
2022-10-26T08:20:04.072Z,15.68
2022-10-26T08:25:35.100Z,15.79
2022-10-26T08:31:05.009Z,15.97
2022-10-26T08:36:34.538Z,16.14
2022-10-26T08:42:04.624Z,16.35
2022-10-26T08:47:33.039Z,16.44
2022-10-26T08:53:08.138Z,16.34
2022-10-26T08:58:39.352Z,16.39
2022-10-26T09:04:07.616Z,16.44
2022-10-26T09:09:54.133Z,16.56
2022-10-26T09:15:27.296Z,16.76
2022-10-26T09:20:59.424Z,16.86
2022-10-26T09:26:37.338Z,17.00
2022-10-26T09:32:06.667Z,17.15
2022-10-26T09:37:42.556Z,17.27
2022-10-26T09:43:30.246Z,17.46
2022-10-26T09:54:26.937Z,17.92
2022-10-26T10:00:04.940Z,17.94
2022-10-26T10:05:53.363Z,18.18
2022-10-26T10:11:19.759Z,18.31
2022-10-26T10:16:53.025Z,18.31
2022-10-26T10:22:25.297Z,18.37
2022-10-26T10:27:56.736Z,18.50
2022-10-26T10:33:42.193Z,18.74
2022-10-26T10:39:41.052Z,18.87
2022-10-26T10:45:08.028Z,18.84
2022-10-26T10:50:41.690Z,18.86
2022-10-26T10:56:30.052Z,19.00
2022-10-26T11:02:08.529Z,19.05
2022-10-26T11:07:57.995Z,19.05
2022-10-26T11:13:31.545Z,19.09
2022-10-26T11:19:00.835Z,19.04
2022-10-26T11:24:31.620Z,19.07
2022-10-26T11:30:06.762Z,19.18
2022-10-26T11:35:34.214Z,19.25
2022-10-26T11:41:20.829Z,19.32
2022-10-26T11:46:48.840Z,19.28
2022-10-26T11:52:56.775Z,19.31
2022-10-26T11:58:29.248Z,19.27
2022-10-26T12:03:58.878Z,19.39
2022-10-26T12:09:25.998Z,19.48
2022-10-26T12:15:04.201Z,19.49
2022-10-26T12:21:04.645Z,19.59
2022-10-26T12:27:00.217Z,19.65
2022-10-26T12:32:58.413Z,19.67
2022-10-26T12:39:03.042Z,19.64
2022-10-26T12:44:40.026Z,19.59
2022-10-26T12:50:27.869Z,19.59
2022-10-26T12:56:07.310Z,19.64
2022-10-26T13:01:47.112Z,19.66
2022-10-26T13:07:23.035Z,19.66
2022-10-26T13:12:57.256Z,19.56
2022-10-26T13:18:32.417Z,19.49
2022-10-26T13:24:08.964Z,19.56
2022-10-26T13:29:33.698Z,19.61
2022-10-26T13:35:00.990Z,19.65
2022-10-26T13:40:34.984Z,19.67
2022-10-26T13:46:03.286Z,19.66
2022-10-26T13:51:58.768Z,19.70
2022-10-26T13:57:35.714Z,19.69
2022-10-26T14:02:59.546Z,19.52
2022-10-26T14:08:33.971Z,19.50
2022-10-26T14:14:10.356Z,19.40
2022-10-26T14:19:35.573Z,19.34
2022-10-26T14:25:05.415Z,19.32
2022-10-26T14:30:32.731Z,19.33
2022-10-26T14:35:59.954Z,19.28
2022-10-26T14:41:27.622Z,19.22
2022-10-26T14:46:57.413Z,19.21
2022-10-26T14:52:28.919Z,19.17
2022-10-26T14:58:23.080Z,19.05
2022-10-26T15:03:56.538Z,18.96
2022-10-26T15:09:41.115Z,18.81
2022-10-26T15:15:25.876Z,18.73
2022-10-26T15:20:56.054Z,18.65
2022-10-26T15:26:19.822Z,18.59
2022-10-26T15:31:51.441Z,18.55
2022-10-26T15:37:18.365Z,18.48
2022-10-26T15:42:50.458Z,18.39
2022-10-26T15:48:32.740Z,18.36
2022-10-26T15:54:08.194Z,18.29
2022-10-26T15:59:36.812Z,18.24
2022-10-26T16:05:02.121Z,18.21
2022-10-26T16:10:51.614Z,18.17
2022-10-26T16:16:21.875Z,18.09
2022-10-26T16:21:46.849Z,18.04
2022-10-26T16:27:20.642Z,17.99
2022-10-26T16:32:45.615Z,17.94
2022-10-26T16:38:14.552Z,17.90
2022-10-26T16:43:42.310Z,17.84
2022-10-26T16:49:10.591Z,17.79
2022-10-26T16:54:49.600Z,17.69
2022-10-26T17:00:58.441Z,17.61
2022-10-26T17:06:52.785Z,17.49
2022-10-26T17:12:22.257Z,17.34
2022-10-26T17:17:55.455Z,17.23
2022-10-26T17:23:26.149Z,17.11
2022-10-26T17:28:59.784Z,16.99
2022-10-26T17:34:26.712Z,16.87
2022-10-26T17:39:55.528Z,16.76
2022-10-26T17:45:20.178Z,16.62
2022-10-26T17:50:48.684Z,16.52
2022-10-26T17:56:27.299Z,16.44
2022-10-26T18:01:52.830Z,16.37
2022-10-26T18:07:27.766Z,16.33
2022-10-26T18:12:57.425Z,16.24
2022-10-26T18:18:20.537Z,16.18
2022-10-26T18:23:47.248Z,16.11
2022-10-26T18:29:24.435Z,16.08
2022-10-26T18:34:55.211Z,16.01
2022-10-26T18:40:21.957Z,15.98
2022-10-26T18:45:49.432Z,15.95
2022-10-26T18:51:18.982Z,15.90
2022-10-26T18:56:47.999Z,15.87
2022-10-26T19:02:27.647Z,15.84
2022-10-26T19:07:50.681Z,15.77
2022-10-26T19:13:18.290Z,15.72
2022-10-26T19:18:48.783Z,15.70
2022-10-26T19:24:21.915Z,15.68
2022-10-26T19:29:49.949Z,15.65
2022-10-26T19:35:22.991Z,15.65
2022-10-26T19:41:06.433Z,15.62
2022-10-26T19:46:48.463Z,15.59
2022-10-26T19:52:15.238Z,15.55
2022-10-26T19:57:38.119Z,15.50
2022-10-26T20:03:03.016Z,15.47
2022-10-26T20:08:30.867Z,15.40
2022-10-26T20:14:08.712Z,15.33
2022-10-26T20:19:37.618Z,15.25
2022-10-26T20:25:02.522Z,15.19
2022-10-26T20:30:34.842Z,15.13
2022-10-26T20:36:15.028Z,15.09
2022-10-26T20:41:51.118Z,15.02
2022-10-26T20:47:22.135Z,14.96
2022-10-26T20:53:01.559Z,14.93
2022-10-26T20:58:46.266Z,14.92
2022-10-26T21:04:11.914Z,14.89
2022-10-26T21:09:40.091Z,14.86
2022-10-26T21:15:20.586Z,14.84
2022-10-26T21:20:43.468Z,14.80
2022-10-26T21:26:11.438Z,14.76
2022-10-26T21:31:49.568Z,14.71
2022-10-26T21:37:18.169Z,14.65
2022-10-26T21:42:46.406Z,14.62
2022-10-26T21:48:11.958Z,14.57
2022-10-26T21:53:35.086Z,14.56
2022-10-26T21:58:59.389Z,14.51
2022-10-26T22:04:28.496Z,14.49
2022-10-26T22:10:11.117Z,14.46
2022-10-26T22:15:35.096Z,14.41
2022-10-26T22:21:19.708Z,14.39
2022-10-26T22:26:46.373Z,14.33
2022-10-26T22:32:10.566Z,14.28
2022-10-26T22:37:39.886Z,14.24
2022-10-26T22:43:09.521Z,14.20
2022-10-26T22:48:45.599Z,14.17
2022-10-26T22:54:18.018Z,14.16
2022-10-26T22:59:40.656Z,14.13
2022-10-26T23:05:04.433Z,14.10
2022-10-26T23:10:31.322Z,14.06
2022-10-26T23:16:05.574Z,14.05
2022-10-26T23:21:36.523Z,14.03
2022-10-26T23:27:14.987Z,14.03
2022-10-26T23:33:03.627Z,14.03
2022-10-26T23:38:29.552Z,13.98
2022-10-26T23:44:04.733Z,13.99
2022-10-26T23:49:41.588Z,13.97
2022-10-26T23:55:05.013Z,13.96
